createdAt,value
2017-08-30T00:00:32.980Z,25.8
2017-08-30T00:01:42.586Z,25.75
2017-08-30T00:02:51.247Z,25.79
2017-08-30T00:04:00.533Z,25.77
2017-08-30T00:05:09.188Z,25.79
2017-08-30T00:06:18.471Z,25.76
2017-08-30T00:07:27.436Z,25.75
2017-08-30T00:08:36.422Z,25.77
2017-08-30T00:09:45.381Z,25.7
2017-08-30T00:10:54.345Z,25.7
2017-08-30T00:12:03.643Z,25.7
2017-08-30T00:13:12.624Z,25.7
2017-08-30T00:14:21.601Z,25.73
2017-08-30T00:15:30.878Z,25.73
2017-08-30T00:16:39.845Z,25.67
2017-08-30T00:17:49.145Z,25.7
2017-08-30T00:18:58.438Z,25.7
2017-08-30T00:20:07.738Z,25.7
2017-08-30T00:21:17.032Z,25.72
2017-08-30T00:22:25.689Z,25.7
2017-08-30T00:23:34.991Z,25.67
2017-08-30T00:24:43.641Z,25.67
2017-08-30T00:25:52.617Z,25.73
2017-08-30T00:27:01.294Z,25.64
2017-08-30T00:28:10.555Z,25.72
2017-08-30T00:29:19.875Z,25.6
2017-08-30T00:30:28.550Z,25.65
2017-08-30T00:31:37.839Z,25.62
2017-08-30T00:32:47.432Z,25.62
2017-08-30T00:33:56.408Z,25.62
2017-08-30T00:35:05.380Z,25.6
2017-08-30T00:36:14.981Z,25.55
2017-08-30T00:37:23.966Z,25.6
2017-08-30T00:38:32.939Z,25.57
2017-08-30T00:39:41.962Z,25.65
2017-08-30T00:40:50.616Z,25.58
2017-08-30T00:41:59.285Z,25.6
2017-08-30T00:43:08.571Z,25.57
2017-08-30T00:44:17.551Z,25.61
2017-08-30T00:45:26.528Z,25.64
2017-08-30T00:46:35.507Z,25.67
2017-08-30T00:47:44.487Z,25.6
2017-08-30T00:48:53.455Z,25.61
2017-08-30T00:50:02.108Z,25.55
2017-08-30T00:51:11.393Z,25.58
2017-08-30T00:52:20.056Z,25.55
2017-08-30T00:53:29.348Z,25.58
2017-08-30T00:54:38.322Z,25.57
2017-08-30T00:55:47.302Z,25.61
2017-08-30T00:56:56.283Z,25.61
2017-08-30T00:58:05.564Z,25.6
2017-08-30T00:59:14.871Z,25.57
2017-08-30T01:00:23.857Z,25.6
2017-08-30T01:01:33.150Z,25.57
2017-08-30T01:02:41.836Z,25.67
2017-08-30T01:03:51.126Z,25.55
2017-08-30T01:05:00.086Z,25.6
2017-08-30T01:06:09.072Z,25.47
2017-08-30T01:07:18.049Z,25.46
2017-08-30T01:08:27.026Z,25.54
2017-08-30T01:09:35.990Z,25.47
2017-08-30T01:10:45.270Z,25.47
2017-08-30T01:11:54.548Z,25.46
2017-08-30T01:13:03.835Z,25.47
2017-08-30T01:14:12.811Z,25.61
2017-08-30T01:15:21.474Z,25.54
2017-08-30T01:16:30.755Z,25.51
2017-08-30T01:17:39.737Z,25.45
2017-08-30T01:18:48.712Z,25.46
2017-08-30T01:19:58.315Z,25.57
2017-08-30T01:21:07.285Z,25.58
2017-08-30T01:22:16.269Z,25.51
2017-08-30T01:23:25.559Z,25.52
2017-08-30T01:24:34.602Z,25.47
2017-08-30T01:25:43.569Z,25.51
2017-08-30T01:26:53.182Z,25.58
2017-08-30T01:28:02.489Z,25.54
2017-08-30T01:29:11.766Z,25.47
2017-08-30T01:30:20.732Z,25.51
2017-08-30T01:31:30.358Z,25.6
2017-08-30T01:32:39.662Z,25.64
2017-08-30T01:33:48.945Z,25.57
2017-08-30T01:34:58.233Z,25.54
2017-08-30T01:36:06.895Z,25.58
2017-08-30T01:37:15.863Z,25.47
2017-08-30T01:38:25.459Z,25.52
2017-08-30T01:39:34.749Z,25.55
2017-08-30T01:40:44.041Z,25.54
2017-08-30T01:41:52.700Z,25.51
2017-08-30T01:43:01.358Z,25.57
2017-08-30T01:44:10.026Z,25.54
2017-08-30T01:45:18.999Z,25.5
2017-08-30T01:46:28.285Z,25.54
2017-08-30T01:47:37.262Z,25.47
2017-08-30T01:48:45.912Z,25.46
2017-08-30T01:49:54.888Z,25.52
2017-08-30T01:51:03.854Z,25.55
2017-08-30T01:52:13.132Z,25.46
2017-08-30T01:53:22.430Z,25.5
2017-08-30T01:54:31.728Z,25.5
2017-08-30T01:55:41.010Z,25.5
2017-08-30T01:56:50.290Z,25.39
2017-08-30T01:57:58.958Z,25.5
2017-08-30T01:59:07.612Z,25.46
2017-08-30T02:00:16.644Z,25.32
2017-08-30T02:01:25.937Z,25.33
2017-08-30T02:02:35.235Z,25.42
2017-08-30T02:03:44.833Z,25.36
2017-08-30T02:04:53.805Z,25.33
2017-08-30T02:06:02.781Z,25.33
2017-08-30T02:07:11.740Z,25.38
2017-08-30T02:08:20.403Z,25.39
2017-08-30T02:09:29.388Z,25.43
2017-08-30T02:10:38.055Z,25.43
2017-08-30T02:11:47.340Z,25.38
2017-08-30T02:12:55.986Z,25.4
2017-08-30T02:14:04.950Z,25.33
2017-08-30T02:15:14.558Z,25.33
2017-08-30T02:16:23.586Z,25.42
2017-08-30T02:17:32.883Z,25.38
2017-08-30T02:18:42.479Z,25.42
2017-08-30T02:19:51.756Z,25.45
2017-08-30T02:21:00.446Z,25.38
2017-08-30T02:22:09.427Z,25.42
2017-08-30T02:23:18.728Z,25.38
2017-08-30T02:24:27.701Z,25.42
2017-08-30T02:25:36.989Z,25.38
2017-08-30T02:26:45.971Z,25.42
2017-08-30T02:27:55.258Z,25.35
2017-08-30T02:29:04.543Z,25.43
2017-08-30T02:30:14.176Z,25.36
2017-08-30T02:31:22.832Z,25.4
2017-08-30T02:32:31.796Z,25.39
2017-08-30T02:33:40.463Z,25.33
2017-08-30T02:34:49.444Z,25.28
2017-08-30T02:35:59.044Z,25.39
2017-08-30T02:37:07.709Z,25.3
2017-08-30T02:38:17.005Z,25.39
2017-08-30T02:39:26.049Z,25.27
2017-08-30T02:40:35.339Z,25.36
2017-08-30T02:41:44.622Z,25.42
2017-08-30T02:42:53.619Z,25.3
2017-08-30T02:44:02.981Z,25.35
2017-08-30T02:45:12.594Z,25.35
2017-08-30T02:46:21.639Z,25.4
2017-08-30T02:47:30.935Z,25.3
2017-08-30T02:48:39.916Z,25.28
2017-08-30T02:49:48.887Z,25.32
2017-08-30T02:50:57.557Z,25.3
2017-08-30T02:52:06.208Z,25.27
2017-08-30T02:53:14.868Z,25.33
2017-08-30T02:54:23.524Z,25.32
2017-08-30T02:55:33.133Z,25.33
2017-08-30T02:56:42.419Z,25.28
2017-08-30T02:57:52.019Z,25.35
2017-08-30T02:59:01.308Z,25.25
2017-08-30T03:00:10.588Z,25.33
2017-08-30T03:01:19.890Z,25.28
2017-08-30T03:02:28.546Z,25.33
2017-08-30T03:03:37.840Z,25.36
2017-08-30T03:04:46.879Z,25.35
2017-08-30T03:05:56.201Z,25.4
2017-08-30T03:07:04.854Z,25.3
2017-08-30T03:08:13.531Z,25.28
2017-08-30T03:09:22.499Z,25.3
2017-08-30T03:10:31.792Z,25.35
2017-08-30T03:11:40.787Z,25.35
2017-08-30T03:12:49.762Z,25.3
2017-08-30T03:13:58.727Z,25.24
2017-08-30T03:15:07.385Z,25.27
2017-08-30T03:16:16.353Z,25.2
2017-08-30T03:17:25.659Z,25.23
2017-08-30T03:18:34.953Z,25.24
2017-08-30T03:19:43.634Z,25.32
2017-08-30T03:20:52.613Z,25.28
2017-08-30T03:22:01.584Z,25.25
2017-08-30T03:23:10.619Z,25.21
2017-08-30T03:24:19.585Z,25.18
2017-08-30T03:25:28.240Z,25.27
2017-08-30T03:26:36.890Z,25.25
2017-08-30T03:27:45.867Z,25.28
2017-08-30T03:28:55.151Z,25.21
2017-08-30T03:30:04.443Z,25.25
2017-08-30T03:31:14.058Z,25.21
2017-08-30T03:32:23.381Z,25.3
2017-08-30T03:33:32.349Z,25.17
2017-08-30T03:34:41.025Z,25.24
2017-08-30T03:35:50.006Z,25.23
2017-08-30T03:36:58.667Z,25.24
2017-08-30T03:38:07.669Z,25.2
2017-08-30T03:39:16.638Z,25.18
2017-08-30T03:40:25.602Z,25.18
2017-08-30T03:41:34.886Z,25.23
2017-08-30T03:42:44.171Z,25.21
2017-08-30T03:43:53.475Z,25.18
2017-08-30T03:45:03.085Z,25.21
2017-08-30T03:46:12.377Z,25.17
2017-08-30T03:47:21.035Z,25.17
2017-08-30T03:48:30.021Z,25.18
2017-08-30T03:49:38.958Z,25.15
2017-08-30T03:50:47.935Z,25.14
2017-08-30T03:51:56.909Z,25.17
2017-08-30T03:53:05.885Z,25.1
2017-08-30T03:54:15.165Z,25.15
2017-08-30T03:55:23.816Z,25.09
2017-08-30T03:56:33.113Z,25.13
2017-08-30T03:57:42.407Z,25.17
2017-08-30T03:58:51.695Z,25.1
2017-08-30T04:00:00.674Z,25.09
2017-08-30T04:01:09.968Z,25.06
2017-08-30T04:02:18.932Z,25.1
2017-08-30T04:03:28.214Z,25.05
2017-08-30T04:04:37.496Z,25.14
2017-08-30T04:05:46.168Z,25.08
2017-08-30T04:06:55.450Z,25.14
2017-08-30T04:08:04.107Z,25.02
2017-08-30T04:09:12.771Z,25.05
2017-08-30T04:10:22.052Z,25.02
2017-08-30T04:11:31.026Z,25.09
2017-08-30T04:12:39.990Z,25.05
2017-08-30T04:13:49.598Z,25.06
2017-08-30T04:14:58.885Z,25.1
2017-08-30T04:16:08.172Z,25.09
2017-08-30T04:17:17.143Z,25.02
2017-08-30T04:18:25.817Z,25.02
2017-08-30T04:19:34.790Z,25.05
2017-08-30T04:20:44.080Z,25.03
2017-08-30T04:21:53.075Z,25.06
2017-08-30T04:23:02.039Z,25.09
2017-08-30T04:24:11.338Z,25.14
2017-08-30T04:25:20.336Z,25.02
2017-08-30T04:26:29.036Z,25.03
2017-08-30T04:27:38.401Z,25.08
2017-08-30T04:28:47.433Z,24.95
2017-08-30T04:29:56.808Z,24.95
2017-08-30T04:31:06.164Z,24.96
2017-08-30T04:32:15.156Z,25
2017-08-30T04:33:24.771Z,24.93
2017-08-30T04:34:34.057Z,24.98
2017-08-30T04:35:43.039Z,24.96
2017-08-30T04:36:52.959Z,24.95
2017-08-30T04:38:02.242Z,24.98
2017-08-30T04:39:11.208Z,24.88
2017-08-30T04:40:20.176Z,24.96
2017-08-30T04:41:29.925Z,24.96
2017-08-30T04:42:38.915Z,24.96
2017-08-30T04:43:47.895Z,24.93
2017-08-30T04:44:56.875Z,24.95
2017-08-30T04:46:06.171Z,24.95
2017-08-30T04:47:14.821Z,24.88
2017-08-30T04:48:24.425Z,24.88
2017-08-30T04:49:33.091Z,24.96
2017-08-30T04:50:42.380Z,24.96
2017-08-30T04:51:51.354Z,24.9
2017-08-30T04:53:00.324Z,24.91
2017-08-30T04:54:08.975Z,24.96
2017-08-30T04:55:17.950Z,24.91
2017-08-30T04:56:27.244Z,24.96
2017-08-30T04:57:36.551Z,24.87
2017-08-30T04:58:45.198Z,24.96
2017-08-30T04:59:54.175Z,24.93
2017-08-30T05:01:03.166Z,24.9
2017-08-30T05:02:12.455Z,24.95
2017-08-30T05:03:21.465Z,24.98
2017-08-30T05:04:30.431Z,24.98
2017-08-30T05:05:39.411Z,24.95
2017-08-30T05:06:48.713Z,24.9
2017-08-30T05:07:58.324Z,24.98
2017-08-30T05:09:07.612Z,24.96
2017-08-30T05:10:16.588Z,24.95
2017-08-30T05:11:26.209Z,25
2017-08-30T05:12:35.807Z,24.98
2017-08-30T05:13:45.104Z,25.06
2017-08-30T05:14:53.756Z,25.06
2017-08-30T05:16:03.038Z,25.05
2017-08-30T05:17:11.710Z,25.08
2017-08-30T05:18:20.661Z,25.08
2017-08-30T05:19:30.270Z,25.05
2017-08-30T05:20:39.007Z,25.09
2017-08-30T05:21:47.977Z,25.13
2017-08-30T05:22:57.576Z,25.06
2017-08-30T05:24:06.555Z,25.21
2017-08-30T05:25:15.223Z,25.13
2017-08-30T05:26:23.884Z,25.14
2017-08-30T05:27:33.184Z,25.14
2017-08-30T05:28:42.150Z,25.17
2017-08-30T05:29:51.144Z,25.14
2017-08-30T05:31:00.466Z,25.17
2017-08-30T05:32:09.455Z,25.17
2017-08-30T05:33:18.168Z,25.17
2017-08-30T05:34:27.199Z,25.2
2017-08-30T05:35:36.511Z,25.15
2017-08-30T05:36:45.248Z,25.18
2017-08-30T05:37:54.229Z,25.2
2017-08-30T05:39:03.214Z,25.14
2017-08-30T05:40:11.878Z,25.18
2017-08-30T05:41:20.880Z,25.21
2017-08-30T05:42:29.890Z,25.21
2017-08-30T05:43:38.563Z,25.14
2017-08-30T05:44:47.221Z,25.21
2017-08-30T05:45:55.893Z,25.17
2017-08-30T05:47:05.489Z,25.18
2017-08-30T05:48:14.467Z,25.14
2017-08-30T05:49:23.766Z,25.17
2017-08-30T05:50:32.427Z,25.18
2017-08-30T05:51:41.079Z,25.18
2017-08-30T05:52:50.404Z,25.2
2017-08-30T05:53:59.086Z,25.2
2017-08-30T05:55:07.775Z,25.23
2017-08-30T05:56:16.779Z,25.25
2017-08-30T05:57:26.434Z,25.25
2017-08-30T05:58:35.421Z,25.25
2017-08-30T05:59:45.021Z,25.21
2017-08-30T06:00:54.341Z,25.25
2017-08-30T06:02:03.372Z,25.3
2017-08-30T06:03:12.353Z,25.24
2017-08-30T06:04:21.039Z,25.25
2017-08-30T06:05:30.356Z,25.28
2017-08-30T06:06:39.065Z,25.24
2017-08-30T06:07:48.086Z,25.24
2017-08-30T06:08:57.078Z,25.28
2017-08-30T06:10:06.266Z,25.36
2017-08-30T06:11:15.876Z,25.32
2017-08-30T06:12:24.935Z,25.33
2017-08-30T06:13:34.259Z,25.3
2017-08-30T06:14:42.945Z,25.38
2017-08-30T06:15:52.571Z,25.39
2017-08-30T06:17:01.551Z,25.38
2017-08-30T06:18:10.330Z,25.46
2017-08-30T06:19:19.961Z,25.38
2017-08-30T06:20:29.012Z,25.52
2017-08-30T06:21:38.422Z,25.52
2017-08-30T06:22:48.402Z,25.51
2017-08-30T06:23:58.103Z,25.51
2017-08-30T06:25:08.179Z,25.55
2017-08-30T06:26:17.509Z,25.62
2017-08-30T06:27:26.488Z,25.62
2017-08-30T06:28:35.644Z,25.65
2017-08-30T06:29:44.977Z,25.61
2017-08-30T06:30:54.290Z,25.61
2017-08-30T06:32:03.673Z,25.62
2017-08-30T06:33:12.646Z,25.7
2017-08-30T06:34:22.531Z,25.64
2017-08-30T06:35:31.910Z,25.67
2017-08-30T06:36:41.870Z,25.69
2017-08-30T06:37:50.863Z,25.67
2017-08-30T06:39:00.186Z,25.7
2017-08-30T06:40:09.492Z,25.73
2017-08-30T06:41:18.797Z,25.76
2017-08-30T06:42:27.766Z,25.76
2017-08-30T06:43:36.742Z,25.79
2017-08-30T06:44:45.422Z,25.8
2017-08-30T06:45:54.425Z,25.77
2017-08-30T06:47:03.709Z,25.77
2017-08-30T06:48:12.685Z,25.77
2017-08-30T06:49:21.988Z,25.76
2017-08-30T06:50:30.678Z,25.85
2017-08-30T06:51:39.645Z,25.73
2017-08-30T06:52:48.679Z,25.77
2017-08-30T06:53:57.966Z,25.85
2017-08-30T06:55:07.284Z,25.9
2017-08-30T06:56:16.276Z,25.8
2017-08-30T06:57:25.267Z,25.8
2017-08-30T06:58:34.245Z,25.85
2017-08-30T06:59:43.880Z,25.8
2017-08-30T07:00:52.857Z,25.85
2017-08-30T07:02:01.543Z,25.83
2017-08-30T07:03:10.865Z,25.9
2017-08-30T07:04:19.851Z,25.87
2017-08-30T07:05:28.514Z,25.82
2017-08-30T07:06:37.862Z,25.87
2017-08-30T07:07:46.557Z,25.88
2017-08-30T07:08:55.869Z,25.87
2017-08-30T07:10:05.180Z,25.87
2017-08-30T07:11:14.472Z,25.92
2017-08-30T07:12:24.120Z,25.91
2017-08-30T07:13:33.764Z,25.88
2017-08-30T07:14:42.763Z,25.87
2017-08-30T07:15:51.428Z,25.92
2017-08-30T07:17:01.047Z,25.91
2017-08-30T07:18:10.061Z,25.92
2017-08-30T07:19:19.051Z,25.91
2017-08-30T07:20:28.033Z,25.91
2017-08-30T07:21:37.020Z,25.91
2017-08-30T07:22:45.990Z,25.88
2017-08-30T07:23:54.982Z,25.9
2017-08-30T07:25:03.976Z,25.92
2017-08-30T07:26:12.949Z,25.92
2017-08-30T07:27:21.643Z,25.97
2017-08-30T07:28:30.964Z,25.99
2017-08-30T07:29:39.670Z,25.94
2017-08-30T07:30:48.349Z,25.91
2017-08-30T07:31:57.655Z,26.02
2017-08-30T07:33:06.618Z,25.98
2017-08-30T07:34:15.589Z,26.09
2017-08-30T07:35:24.931Z,25.97
2017-08-30T07:36:33.941Z,25.98
2017-08-30T07:37:43.263Z,26.06
2017-08-30T07:38:53.248Z,25.98
2017-08-30T07:40:01.944Z,25.99
2017-08-30T07:41:10.624Z,26.13
2017-08-30T07:42:19.917Z,26.1
2017-08-30T07:43:28.899Z,26.1
2017-08-30T07:44:37.872Z,26.1
2017-08-30T07:45:46.859Z,26.09
2017-08-30T07:46:55.552Z,26.12
2017-08-30T07:48:04.571Z,26.12
2017-08-30T07:49:13.913Z,26.12
2017-08-30T07:50:22.593Z,26.21
2017-08-30T07:51:31.855Z,26.2
2017-08-30T07:52:41.153Z,26.21
2017-08-30T07:53:50.145Z,26.26
2017-08-30T07:54:59.130Z,26.26
2017-08-30T07:56:27.023Z,26.33
2017-08-30T07:57:36.341Z,26.33
2017-08-30T07:58:45.644Z,26.37
2017-08-30T07:59:55.267Z,26.45
2017-08-30T08:01:04.933Z,26.44
2017-08-30T08:02:14.226Z,26.43
2017-08-30T08:03:22.893Z,26.45
2017-08-30T08:04:31.869Z,26.57
2017-08-30T08:05:40.516Z,26.47
2017-08-30T08:06:49.805Z,26.51
2017-08-30T08:07:58.450Z,26.63
2017-08-30T08:09:07.422Z,26.65
2017-08-30T08:10:16.696Z,26.69
2017-08-30T08:11:25.695Z,26.77
2017-08-30T08:12:35.300Z,26.8
2017-08-30T08:13:43.973Z,26.87
2017-08-30T08:14:53.900Z,26.8
2017-08-30T08:16:03.198Z,26.85
2017-08-30T08:17:11.857Z,26.89
2017-08-30T08:18:20.546Z,26.87
2017-08-30T08:19:29.840Z,26.87
2017-08-30T08:23:10.874Z,26.82
2017-08-30T08:24:19.911Z,26.85
2017-08-30T08:25:28.986Z,26.8
2017-08-30T08:26:38.298Z,26.81
2017-08-30T08:27:47.267Z,26.82
2017-08-30T08:31:28.615Z,26.87
2017-08-30T08:35:09.982Z,26.8
2017-08-30T08:41:25.344Z,26.8
2017-08-30T08:42:34.638Z,26.7
2017-08-30T08:46:16.640Z,26.73
2017-08-30T08:47:25.929Z,26.67
2017-08-30T08:53:40.305Z,26.73
2017-08-30T08:54:48.970Z,26.75
2017-08-30T09:02:18.529Z,26.87
2017-08-30T09:03:28.133Z,26.88
2017-08-30T09:04:37.739Z,26.87
2017-08-30T09:05:46.406Z,26.92
2017-08-30T09:06:55.400Z,26.94
2017-08-30T09:08:04.088Z,27.03
2017-08-30T09:09:14.027Z,27.03
2017-08-30T09:10:23.049Z,27.03
2017-08-30T09:11:31.725Z,27.12
2017-08-30T09:12:40.386Z,27.18
2017-08-30T09:13:49.358Z,27.18
2017-08-30T09:14:58.963Z,27.22
2017-08-30T09:16:08.254Z,27.21
2017-08-30T09:17:17.242Z,27.22
2017-08-30T09:18:26.533Z,27.25
2017-08-30T09:19:35.510Z,27.22
2017-08-30T09:20:44.814Z,27.27
2017-08-30T09:21:54.133Z,27.24
2017-08-30T09:23:03.428Z,27.25
2017-08-30T09:24:12.086Z,27.27
2017-08-30T09:25:21.068Z,27.27
2017-08-30T09:26:30.350Z,27.25
2017-08-30T09:27:39.025Z,27.18
2017-08-30T09:28:47.999Z,27.19
2017-08-30T09:29:57.279Z,27.21
2017-08-30T09:31:06.595Z,27.18
2017-08-30T09:32:15.569Z,27.22
2017-08-30T09:33:25.222Z,27.24
2017-08-30T09:34:34.504Z,27.21
2017-08-30T09:35:44.121Z,27.22
2017-08-30T09:36:53.404Z,27.24
2017-08-30T09:38:02.069Z,27.24
2017-08-30T09:39:11.050Z,27.22
2017-08-30T09:40:20.021Z,27.19
2017-08-30T09:41:29.034Z,27.22
2017-08-30T09:42:38.011Z,27.24
2017-08-30T09:43:46.993Z,27.27
2017-08-30T09:44:55.974Z,27.22
2017-08-30T09:46:04.948Z,27.24
2017-08-30T09:47:14.252Z,27.27
2017-08-30T09:48:23.548Z,27.21
2017-08-30T09:49:32.578Z,27.24
2017-08-30T09:50:41.572Z,27.22
2017-08-30T09:51:50.554Z,27.27
2017-08-30T09:52:59.851Z,27.25
2017-08-30T09:54:08.824Z,27.25
2017-08-30T09:55:17.484Z,27.18
2017-08-30T09:56:26.196Z,27.22
2017-08-30T09:57:35.162Z,27.17
2017-08-30T09:58:44.133Z,27.13
2017-08-30T09:59:53.144Z,27.18
2017-08-30T10:01:01.891Z,27.14
2017-08-30T10:02:10.869Z,27.19
2017-08-30T10:03:19.846Z,27.18
2017-08-30T10:04:29.546Z,27.18
2017-08-30T10:05:38.832Z,27.24
2017-08-30T10:06:47.502Z,27.25
2017-08-30T10:07:56.476Z,27.28
2017-08-30T10:09:05.874Z,27.27
2017-08-30T10:10:15.369Z,27.22
2017-08-30T10:11:24.960Z,27.28
2017-08-30T10:12:35.078Z,27.28
2017-08-30T10:13:46.105Z,27.31
2017-08-30T10:14:55.700Z,27.25
2017-08-30T10:16:05.415Z,27.19
2017-08-30T10:17:14.696Z,27.27
2017-08-30T10:18:23.370Z,27.27
2017-08-30T10:19:32.658Z,27.22
2017-08-30T10:20:41.631Z,27.22
2017-08-30T10:21:50.610Z,27.25
2017-08-30T10:22:59.269Z,27.29
2017-08-30T10:24:08.869Z,27.25
2017-08-30T10:25:18.150Z,27.27
2017-08-30T10:26:27.187Z,27.29
2017-08-30T10:27:35.843Z,27.29
2017-08-30T10:28:44.813Z,27.27
2017-08-30T10:29:53.795Z,27.31
2017-08-30T10:31:02.750Z,27.31
2017-08-30T10:32:12.030Z,27.31
2017-08-30T10:33:20.992Z,27.29
2017-08-30T10:34:29.960Z,27.24
2017-08-30T10:35:38.936Z,27.21
2017-08-30T10:36:47.595Z,27.31
2017-08-30T10:37:56.881Z,27.34
2017-08-30T10:39:07.135Z,27.34
2017-08-30T10:40:16.410Z,27.31
2017-08-30T10:41:25.420Z,27.29
2017-08-30T10:42:34.080Z,27.34
2017-08-30T10:43:43.102Z,27.29
2017-08-30T10:44:52.070Z,27.37
2017-08-30T10:46:01.052Z,27.29
2017-08-30T10:47:10.023Z,27.43
2017-08-30T10:48:19.318Z,27.31
2017-08-30T10:49:28.008Z,27.36
2017-08-30T10:50:36.966Z,27.37
2017-08-30T10:51:45.629Z,27.36
2017-08-30T10:52:54.288Z,27.34
2017-08-30T10:54:02.947Z,27.43
2017-08-30T10:55:12.248Z,27.41
2017-08-30T10:56:20.898Z,27.29
2017-08-30T10:57:29.861Z,27.39
2017-08-30T10:58:38.823Z,27.31
2017-08-30T10:59:47.804Z,27.39
2017-08-30T11:00:57.088Z,27.41
2017-08-30T11:02:06.062Z,27.36
2017-08-30T11:03:15.351Z,27.4
2017-08-30T11:04:24.640Z,27.32
2017-08-30T11:05:33.619Z,27.4
2017-08-30T11:06:42.333Z,27.4
2017-08-30T11:07:50.997Z,27.4
2017-08-30T11:09:00.293Z,27.4
2017-08-30T11:10:08.949Z,27.37
2017-08-30T11:11:17.921Z,27.44
2017-08-30T11:12:28.171Z,27.41
2017-08-30T11:13:36.827Z,27.36
2017-08-30T11:14:46.108Z,27.43
2017-08-30T11:15:55.155Z,27.39
2017-08-30T11:17:04.439Z,27.34
2017-08-30T11:18:13.418Z,27.39
2017-08-30T11:19:22.393Z,27.39
2017-08-30T11:20:31.512Z,27.32
2017-08-30T11:21:40.801Z,27.4
2017-08-30T11:22:49.773Z,27.32
2017-08-30T11:23:59.049Z,27.32
2017-08-30T11:25:07.706Z,27.36
2017-08-30T11:26:16.984Z,27.34
2017-08-30T11:27:25.950Z,27.31
2017-08-30T11:28:35.230Z,27.39
2017-08-30T11:29:44.508Z,27.29
2017-08-30T11:30:53.489Z,27.36
2017-08-30T11:32:02.775Z,27.32
2017-08-30T11:33:11.758Z,27.37
2017-08-30T11:34:21.426Z,27.36
2017-08-30T11:35:30.101Z,27.39
2017-08-30T11:36:39.098Z,27.34
2017-08-30T11:37:47.762Z,27.29
2017-08-30T11:38:57.031Z,27.31
2017-08-30T11:40:05.693Z,27.31
2017-08-30T11:41:14.652Z,27.36
2017-08-30T11:42:23.305Z,27.34
2017-08-30T11:43:31.951Z,27.36
2017-08-30T11:44:41.234Z,27.39
2017-08-30T11:45:50.204Z,27.4
2017-08-30T11:47:00.119Z,27.34
2017-08-30T11:48:09.707Z,27.43
2017-08-30T11:49:18.692Z,27.41
2017-08-30T11:50:27.967Z,27.39
2017-08-30T11:51:37.254Z,27.34
2017-08-30T11:52:46.872Z,27.43
2017-08-30T11:53:55.860Z,27.49
2017-08-30T11:55:04.830Z,27.46
2017-08-30T11:56:13.816Z,27.47
2017-08-30T11:57:22.763Z,27.54
2017-08-30T11:58:32.043Z,27.46
2017-08-30T11:59:41.644Z,27.51
2017-08-30T12:00:50.925Z,27.55
2017-08-30T12:01:59.896Z,27.44
2017-08-30T12:03:08.877Z,27.47
2017-08-30T12:04:18.051Z,27.5
2017-08-30T12:05:27.406Z,27.54
2017-08-30T12:06:37.513Z,27.5
2017-08-30T12:07:47.693Z,27.5
2017-08-30T12:08:57.126Z,27.57
2017-08-30T12:10:06.431Z,27.51
2017-08-30T12:11:15.939Z,27.5
2017-08-30T12:12:26.027Z,27.5
2017-08-30T12:13:35.330Z,27.5
2017-08-30T12:14:44.000Z,27.59
2017-08-30T12:15:53.453Z,27.51
2017-08-30T12:17:03.273Z,27.55
2017-08-30T12:18:13.136Z,27.57
2017-08-30T12:19:22.833Z,27.51
2017-08-30T12:20:32.525Z,27.63
2017-08-30T12:21:42.948Z,27.6
2017-08-30T12:22:52.438Z,27.6
2017-08-30T12:24:01.493Z,27.67
2017-08-30T12:25:10.495Z,27.5
2017-08-30T12:26:19.597Z,27.63
2017-08-30T12:27:28.577Z,27.72
2017-08-30T12:28:37.549Z,27.63
2017-08-30T12:29:46.838Z,27.69
2017-08-30T12:30:55.821Z,27.62
2017-08-30T12:32:05.096Z,27.62
2017-08-30T12:33:13.762Z,27.59
2017-08-30T12:34:23.364Z,27.55
2017-08-30T12:35:32.032Z,27.55
2017-08-30T12:36:41.329Z,27.59
2017-08-30T12:37:50.614Z,27.59
2017-08-30T12:38:59.598Z,27.59
2017-08-30T12:40:08.576Z,27.62
2017-08-30T12:41:17.928Z,27.66
2017-08-30T12:42:27.214Z,27.57
2017-08-30T12:43:35.892Z,27.47
2017-08-30T12:44:45.176Z,27.57
2017-08-30T12:45:54.138Z,27.59
2017-08-30T12:47:03.460Z,27.5
2017-08-30T12:48:12.120Z,27.55
2017-08-30T12:49:21.497Z,27.55
2017-08-30T12:50:30.788Z,27.51
2017-08-30T12:51:39.439Z,27.54
2017-08-30T12:52:48.721Z,27.49
2017-08-30T12:53:58.330Z,27.57
2017-08-30T12:55:07.616Z,27.54
2017-08-30T12:56:16.916Z,27.59
2017-08-30T12:57:25.577Z,27.59
2017-08-30T12:58:35.005Z,27.62
2017-08-30T12:59:44.604Z,27.55
2017-08-30T13:00:53.891Z,27.62
2017-08-30T13:02:02.548Z,27.62
2017-08-30T13:03:12.169Z,27.51
2017-08-30T13:04:21.926Z,27.63
2017-08-30T13:05:31.220Z,27.65
2017-08-30T13:06:40.187Z,27.65
2017-08-30T13:07:49.151Z,27.63
2017-08-30T13:08:58.121Z,27.62
2017-08-30T13:10:07.555Z,27.59
2017-08-30T13:11:17.159Z,27.65
2017-08-30T13:12:26.758Z,27.65
2017-08-30T13:13:36.036Z,27.63
2017-08-30T13:14:44.693Z,27.65
2017-08-30T13:15:53.721Z,27.65
2017-08-30T13:17:03.321Z,27.63
2017-08-30T13:18:12.286Z,27.66
2017-08-30T13:19:21.567Z,27.62
2017-08-30T13:20:30.562Z,27.7
2017-08-30T13:21:39.367Z,27.65
2017-08-30T13:22:48.038Z,27.59
2017-08-30T13:23:57.010Z,27.67
2017-08-30T13:25:05.977Z,27.65
2017-08-30T13:26:15.261Z,27.67
2017-08-30T13:27:24.690Z,27.63
2017-08-30T13:28:33.659Z,27.66
2017-08-30T13:29:42.633Z,27.63
2017-08-30T13:30:51.924Z,27.59
2017-08-30T13:32:01.238Z,27.66
2017-08-30T13:33:11.350Z,27.66
2017-08-30T13:34:20.002Z,27.74
2017-08-30T13:35:28.653Z,27.67
2017-08-30T13:36:37.624Z,27.63
2017-08-30T13:37:47.216Z,27.67
2017-08-30T13:38:56.280Z,27.66
2017-08-30T13:40:04.952Z,27.72
2017-08-30T13:41:13.914Z,27.66
2017-08-30T13:42:23.198Z,27.66
2017-08-30T13:43:32.168Z,27.69
2017-08-30T13:44:41.451Z,27.65
2017-08-30T13:45:50.415Z,27.66
2017-08-30T13:46:59.094Z,27.67
2017-08-30T13:48:07.720Z,27.6
2017-08-30T13:49:16.701Z,27.59
2017-08-30T13:50:25.909Z,27.65
2017-08-30T13:51:35.504Z,27.65
2017-08-30T13:52:44.482Z,27.6
2017-08-30T13:53:53.794Z,27.69
2017-08-30T13:55:02.474Z,27.66
2017-08-30T13:56:11.524Z,27.57
2017-08-30T13:57:20.491Z,27.6
2017-08-30T13:58:29.462Z,27.54
2017-08-30T13:59:38.426Z,27.51
2017-08-30T14:00:47.722Z,27.49
2017-08-30T14:01:57.146Z,27.5
2017-08-30T14:03:06.121Z,27.59
2017-08-30T14:04:15.110Z,27.51
2017-08-30T14:05:24.080Z,27.5
2017-08-30T14:06:32.741Z,27.54
2017-08-30T14:07:41.928Z,27.46
2017-08-30T14:08:50.952Z,27.55
2017-08-30T14:10:00.683Z,27.49
2017-08-30T14:11:09.970Z,27.49
2017-08-30T14:12:19.339Z,27.5
2017-08-30T14:13:28.432Z,27.49
2017-08-30T14:14:37.401Z,27.57
2017-08-30T14:15:46.376Z,27.5
2017-08-30T14:16:55.360Z,27.59
2017-08-30T14:18:04.655Z,27.54
2017-08-30T14:19:13.676Z,27.6
2017-08-30T14:20:22.658Z,27.59
2017-08-30T14:21:31.303Z,27.59
2017-08-30T14:22:40.270Z,27.5
2017-08-30T14:23:49.547Z,27.59
2017-08-30T14:24:58.347Z,27.51
2017-08-30T14:26:07.652Z,27.49
2017-08-30T14:27:16.306Z,27.54
2017-08-30T14:28:25.279Z,27.59
2017-08-30T14:29:34.572Z,27.55
2017-08-30T14:30:43.599Z,27.54
2017-08-30T14:31:52.569Z,27.44
2017-08-30T14:33:01.875Z,27.49
2017-08-30T14:34:10.850Z,27.49
2017-08-30T14:35:19.495Z,27.49
2017-08-30T14:36:28.936Z,27.46
2017-08-30T14:37:37.915Z,27.34
2017-08-30T14:38:46.898Z,27.47
2017-08-30T14:39:55.851Z,27.46
2017-08-30T14:41:05.015Z,27.36
2017-08-30T14:42:15.441Z,27.51
2017-08-30T14:43:24.401Z,27.51
2017-08-30T14:44:33.381Z,27.46
2017-08-30T14:45:42.664Z,27.43
2017-08-30T14:46:51.948Z,27.47
2017-08-30T14:48:01.230Z,27.49
2017-08-30T14:49:09.889Z,27.46
2017-08-30T14:50:19.507Z,27.55
2017-08-30T14:51:28.179Z,27.6
2017-08-30T14:52:37.156Z,27.65
2017-08-30T14:53:46.807Z,27.7
2017-08-30T14:54:55.772Z,27.6
2017-08-30T14:56:04.763Z,27.59
2017-08-30T14:57:13.743Z,27.57
2017-08-30T14:58:22.726Z,27.55
2017-08-30T14:59:31.872Z,27.63
2017-08-30T15:00:41.164Z,27.62
2017-08-30T15:01:50.162Z,27.63
2017-08-30T15:02:59.127Z,27.69
2017-08-30T15:04:08.117Z,27.6
2017-08-30T15:05:17.403Z,27.63
2017-08-30T15:06:26.423Z,27.62
2017-08-30T15:07:35.072Z,27.65
2017-08-30T15:08:44.064Z,27.6
2017-08-30T15:09:52.709Z,27.69
2017-08-30T15:11:02.303Z,27.6
2017-08-30T15:12:11.274Z,27.62
2017-08-30T15:13:20.300Z,27.66
2017-08-30T15:14:29.600Z,27.6
2017-08-30T15:15:38.268Z,27.6
2017-08-30T15:16:47.710Z,27.59
2017-08-30T15:17:56.988Z,27.62
2017-08-30T15:19:05.955Z,27.6
2017-08-30T15:20:14.915Z,27.57
2017-08-30T15:21:23.897Z,27.69